sensor_id;sensor_type;location;lat;lon;timestamp;P1;durP1;ratioP1;P2;durP2;ratioP2
57085;SDS011;42964;42.910;23.792;2023-11-21T00:00:12;68.55;;;40.88;;
57085;SDS011;42964;42.910;23.792;2023-11-21T00:05:14;67.93;;;40.40;;
57085;SDS011;42964;42.910;23.792;2023-11-21T00:10:13;70.82;;;40.15;;
57085;SDS011;42964;42.910;23.792;2023-11-21T00:15:12;66.10;;;41.50;;
57085;SDS011;42964;42.910;23.792;2023-11-21T00:20:11;80.53;;;40.92;;
57085;SDS011;42964;42.910;23.792;2023-11-21T00:25:12;73.00;;;39.53;;
57085;SDS011;42964;42.910;23.792;2023-11-21T00:30:13;73.97;;;38.92;;
57085;SDS011;42964;42.910;23.792;2023-11-21T00:40:11;56.38;;;35.72;;
57085;SDS011;42964;42.910;23.792;2023-11-21T00:45:11;53.45;;;31.60;;
57085;SDS011;42964;42.910;23.792;2023-11-21T00:50:10;32.63;;;22.45;;
57085;SDS011;42964;42.910;23.792;2023-11-21T00:55:09;36.63;;;24.38;;
57085;SDS011;42964;42.910;23.792;2023-11-21T01:00:08;38.45;;;23.92;;
57085;SDS011;42964;42.910;23.792;2023-11-21T01:05:15;40.00;;;22.65;;
57085;SDS011;42964;42.910;23.792;2023-11-21T01:10:14;37.00;;;24.67;;
57085;SDS011;42964;42.910;23.792;2023-11-21T01:15:15;45.25;;;27.75;;
57085;SDS011;42964;42.910;23.792;2023-11-21T01:20:14;46.83;;;30.10;;
57085;SDS011;42964;42.910;23.792;2023-11-21T01:25:13;108.13;;;71.05;;
57085;SDS011;42964;42.910;23.792;2023-11-21T01:30:13;64.32;;;32.88;;
57085;SDS011;42964;42.910;23.792;2023-11-21T01:35:12;44.42;;;28.42;;
57085;SDS011;42964;42.910;23.792;2023-11-21T01:40:11;50.55;;;29.58;;
57085;SDS011;42964;42.910;23.792;2023-11-21T01:45:12;39.90;;;22.40;;
57085;SDS011;42964;42.910;23.792;2023-11-21T01:55:12;32.90;;;21.00;;
57085;SDS011;42964;42.910;23.792;2023-11-21T02:00:16;34.83;;;21.00;;
57085;SDS011;42964;42.910;23.792;2023-11-21T02:05:16;31.55;;;20.15;;
57085;SDS011;42964;42.910;23.792;2023-11-21T02:10:20;27.88;;;20.17;;
57085;SDS011;42964;42.910;23.792;2023-11-21T02:15:21;31.85;;;22.58;;
57085;SDS011;42964;42.910;23.792;2023-11-21T02:20:21;34.13;;;22.73;;
57085;SDS011;42964;42.910;23.792;2023-11-21T02:25:26;44.67;;;27.65;;
57085;SDS011;42964;42.910;23.792;2023-11-21T02:30:31;38.13;;;26.07;;
57085;SDS011;42964;42.910;23.792;2023-11-21T02:35:31;45.03;;;29.73;;
57085;SDS011;42964;42.910;23.792;2023-11-21T02:40:29;44.60;;;28.23;;
57085;SDS011;42964;42.910;23.792;2023-11-21T02:45:28;43.58;;;27.00;;
57085;SDS011;42964;42.910;23.792;2023-11-21T02:50:27;42.85;;;27.35;;
57085;SDS011;42964;42.910;23.792;2023-11-21T02:55:27;48.35;;;28.67;;
57085;SDS011;42964;42.910;23.792;2023-11-21T03:00:26;47.65;;;28.23;;
57085;SDS011;42964;42.910;23.792;2023-11-21T03:05:25;41.72;;;26.65;;
57085;SDS011;42964;42.910;23.792;2023-11-21T03:10:24;42.65;;;25.10;;
57085;SDS011;42964;42.910;23.792;2023-11-21T03:15:23;51.95;;;32.30;;
57085;SDS011;42964;42.910;23.792;2023-11-21T03:20:22;47.72;;;29.67;;
57085;SDS011;42964;42.910;23.792;2023-11-21T03:25:21;51.75;;;31.73;;
57085;SDS011;42964;42.910;23.792;2023-11-21T03:30:22;43.38;;;26.90;;
57085;SDS011;42964;42.910;23.792;2023-11-21T03:35:21;32.08;;;21.73;;
57085;SDS011;42964;42.910;23.792;2023-11-21T03:40:20;32.38;;;20.35;;
57085;SDS011;42964;42.910;23.792;2023-11-21T03:45:19;33.50;;;20.27;;
57085;SDS011;42964;42.910;23.792;2023-11-21T03:50:19;31.58;;;20.83;;
57085;SDS011;42964;42.910;23.792;2023-11-21T03:55:18;31.38;;;20.75;;
57085;SDS011;42964;42.910;23.792;2023-11-21T04:00:17;36.42;;;23.95;;
57085;SDS011;42964;42.910;23.792;2023-11-21T04:05:16;34.20;;;22.83;;
57085;SDS011;42964;42.910;23.792;2023-11-21T04:10:15;33.53;;;21.75;;
57085;SDS011;42964;42.910;23.792;2023-11-21T04:15:14;36.28;;;24.67;;
57085;SDS011;42964;42.910;23.792;2023-11-21T04:20:13;39.38;;;27.10;;
57085;SDS011;42964;42.910;23.792;2023-11-21T04:25:14;47.20;;;31.98;;
57085;SDS011;42964;42.910;23.792;2023-11-21T04:30:13;45.85;;;29.67;;
57085;SDS011;42964;42.910;23.792;2023-11-21T04:40:11;47.80;;;30.60;;
57085;SDS011;42964;42.910;23.792;2023-11-21T04:45:10;49.08;;;30.48;;
57085;SDS011;42964;42.910;23.792;2023-11-21T04:50:10;68.90;;;42.38;;
57085;SDS011;42964;42.910;23.792;2023-11-21T04:55:09;66.22;;;40.42;;
57085;SDS011;42964;42.910;23.792;2023-11-21T05:00:09;61.58;;;38.75;;
57085;SDS011;42964;42.910;23.792;2023-11-21T05:05:08;47.42;;;30.65;;
57085;SDS011;42964;42.910;23.792;2023-11-21T05:10:09;31.42;;;21.15;;
57085;SDS011;42964;42.910;23.792;2023-11-21T05:15:12;35.78;;;22.90;;
57085;SDS011;42964;42.910;23.792;2023-11-21T05:20:14;98.47;;;57.35;;
57085;SDS011;42964;42.910;23.792;2023-11-21T05:25:16;30.00;;;19.70;;
57085;SDS011;42964;42.910;23.792;2023-11-21T05:30:16;28.48;;;19.00;;
57085;SDS011;42964;42.910;23.792;2023-11-21T05:35:15;25.15;;;16.73;;
57085;SDS011;42964;42.910;23.792;2023-11-21T05:40:14;33.00;;;19.13;;
57085;SDS011;42964;42.910;23.792;2023-11-21T05:45:14;33.05;;;20.25;;
57085;SDS011;42964;42.910;23.792;2023-11-21T05:50:14;56.75;;;29.30;;
57085;SDS011;42964;42.910;23.792;2023-11-21T05:55:14;37.60;;;22.50;;
57085;SDS011;42964;42.910;23.792;2023-11-21T06:00:14;43.60;;;26.67;;
57085;SDS011;42964;42.910;23.792;2023-11-21T06:05:25;47.97;;;28.63;;
57085;SDS011;42964;42.910;23.792;2023-11-21T06:10:25;47.92;;;30.00;;
57085;SDS011;42964;42.910;23.792;2023-11-21T06:15:24;58.85;;;31.17;;
57085;SDS011;42964;42.910;23.792;2023-11-21T06:20:23;45.08;;;29.88;;
57085;SDS011;42964;42.910;23.792;2023-11-21T06:25:22;59.88;;;35.00;;
57085;SDS011;42964;42.910;23.792;2023-11-21T06:30:21;61.90;;;39.58;;
57085;SDS011;42964;42.910;23.792;2023-11-21T06:35:20;69.43;;;43.20;;
57085;SDS011;42964;42.910;23.792;2023-11-21T06:45:18;68.15;;;38.28;;
57085;SDS011;42964;42.910;23.792;2023-11-21T06:50:18;58.40;;;35.35;;
57085;SDS011;42964;42.910;23.792;2023-11-21T06:55:17;54.42;;;33.08;;
57085;SDS011;42964;42.910;23.792;2023-11-21T07:00:16;48.80;;;30.85;;
57085;SDS011;42964;42.910;23.792;2023-11-21T07:05:18;44.85;;;28.83;;
57085;SDS011;42964;42.910;23.792;2023-11-21T07:10:19;47.67;;;29.35;;
57085;SDS011;42964;42.910;23.792;2023-11-21T07:15:18;43.60;;;26.52;;
57085;SDS011;42964;42.910;23.792;2023-11-21T07:20:18;46.00;;;28.42;;
57085;SDS011;42964;42.910;23.792;2023-11-21T07:25:17;56.25;;;34.65;;
57085;SDS011;42964;42.910;23.792;2023-11-21T07:30:16;51.78;;;31.92;;
57085;SDS011;42964;42.910;23.792;2023-11-21T07:35:15;48.70;;;32.45;;
57085;SDS011;42964;42.910;23.792;2023-11-21T07:40:14;50.05;;;31.85;;
57085;SDS011;42964;42.910;23.792;2023-11-21T07:45:13;49.88;;;32.72;;
57085;SDS011;42964;42.910;23.792;2023-11-21T07:50:13;52.63;;;33.63;;
57085;SDS011;42964;42.910;23.792;2023-11-21T07:55:12;59.63;;;28.42;;
57085;SDS011;42964;42.910;23.792;2023-11-21T08:00:12;36.30;;;26.05;;
57085;SDS011;42964;42.910;23.792;2023-11-21T08:05:13;39.90;;;26.25;;
57085;SDS011;42964;42.910;23.792;2023-11-21T08:10:14;33.13;;;21.88;;
57085;SDS011;42964;42.910;23.792;2023-11-21T08:15:13;29.77;;;20.95;;
57085;SDS011;42964;42.910;23.792;2023-11-21T08:20:12;28.95;;;20.55;;
57085;SDS011;42964;42.910;23.792;2023-11-21T08:30:11;21.40;;;16.48;;
57085;SDS011;42964;42.910;23.792;2023-11-21T08:35:11;23.00;;;15.32;;
57085;SDS011;42964;42.910;23.792;2023-11-21T08:40:11;19.48;;;14.88;;
57085;SDS011;42964;42.910;23.792;2023-11-21T08:45:15;20.38;;;15.05;;
57085;SDS011;42964;42.910;23.792;2023-11-21T08:50:15;21.10;;;16.42;;
57085;SDS011;42964;42.910;23.792;2023-11-21T08:55:14;23.13;;;15.48;;
57085;SDS011;42964;42.910;23.792;2023-11-21T09:00:14;23.15;;;15.93;;
57085;SDS011;42964;42.910;23.792;2023-11-21T09:05:15;18.00;;;13.50;;
57085;SDS011;42964;42.910;23.792;2023-11-21T09:10:15;19.02;;;13.95;;
57085;SDS011;42964;42.910;23.792;2023-11-21T09:15:14;19.27;;;13.32;;
57085;SDS011;42964;42.910;23.792;2023-11-21T09:20:13;16.08;;;12.23;;
57085;SDS011;42964;42.910;23.792;2023-11-21T09:25:13;20.98;;;13.95;;
57085;SDS011;42964;42.910;23.792;2023-11-21T09:30:12;18.45;;;14.05;;
57085;SDS011;42964;42.910;23.792;2023-11-21T09:35:13;17.17;;;12.57;;
57085;SDS011;42964;42.910;23.792;2023-11-21T09:40:12;15.82;;;12.63;;
57085;SDS011;42964;42.910;23.792;2023-11-21T09:45:17;22.20;;;17.75;;
57085;SDS011;42964;42.910;23.792;2023-11-21T09:50:19;39.90;;;34.78;;
57085;SDS011;42964;42.910;23.792;2023-11-21T09:55:20;51.08;;;36.42;;
57085;SDS011;42964;42.910;23.792;2023-11-21T10:00:19;45.35;;;32.95;;
57085;SDS011;42964;42.910;23.792;2023-11-21T10:05:22;35.13;;;23.25;;
57085;SDS011;42964;42.910;23.792;2023-11-21T10:10:21;15.55;;;12.07;;
57085;SDS011;42964;42.910;23.792;2023-11-21T10:15:22;18.10;;;12.55;;
57085;SDS011;42964;42.910;23.792;2023-11-21T10:20:23;14.27;;;10.32;;
57085;SDS011;42964;42.910;23.792;2023-11-21T10:25:24;9.38;;;7.45;;
57085;SDS011;42964;42.910;23.792;2023-11-21T10:30:27;13.75;;;9.18;;
57085;SDS011;42964;42.910;23.792;2023-11-21T10:35:43;9.00;;;7.47;;
57085;SDS011;42964;42.910;23.792;2023-11-21T10:40:49;9.43;;;8.50;;
57085;SDS011;42964;42.910;23.792;2023-11-21T10:45:49;11.30;;;7.63;;
57085;SDS011;42964;42.910;23.792;2023-11-21T10:55:47;10.60;;;5.93;;
57085;SDS011;42964;42.910;23.792;2023-11-21T11:05:44;5.90;;;5.40;;
57085;SDS011;42964;42.910;23.792;2023-11-21T11:10:50;6.65;;;6.05;;
57085;SDS011;42964;42.910;23.792;2023-11-21T11:15:50;8.30;;;6.40;;
57085;SDS011;42964;42.910;23.792;2023-11-21T11:20:49;7.70;;;7.10;;
57085;SDS011;42964;42.910;23.792;2023-11-21T11:26:10;6.13;;;5.57;;
57085;SDS011;42964;42.910;23.792;2023-11-21T11:36:51;9.55;;;6.95;;
57085;SDS011;42964;42.910;23.792;2023-11-21T11:41:58;9.55;;;8.00;;
57085;SDS011;42964;42.910;23.792;2023-11-21T11:47:00;6.68;;;5.90;;
57085;SDS011;42964;42.910;23.792;2023-11-21T11:57:34;6.63;;;6.03;;
57085;SDS011;42964;42.910;23.792;2023-11-21T12:02:33;6.40;;;5.40;;
57085;SDS011;42964;42.910;23.792;2023-11-21T12:13:08;6.13;;;5.63;;
57085;SDS011;42964;42.910;23.792;2023-11-21T12:18:09;6.90;;;6.20;;
57085;SDS011;42964;42.910;23.792;2023-11-21T12:28:12;6.05;;;5.60;;
57085;SDS011;42964;42.910;23.792;2023-11-21T12:33:12;6.80;;;6.20;;
57085;SDS011;42964;42.910;23.792;2023-11-21T12:38:16;5.90;;;5.38;;
57085;SDS011;42964;42.910;23.792;2023-11-21T12:43:17;5.90;;;5.50;;
57085;SDS011;42964;42.910;23.792;2023-11-21T12:48:19;6.80;;;6.20;;
57085;SDS011;42964;42.910;23.792;2023-11-21T12:53:22;7.10;;;6.40;;
57085;SDS011;42964;42.910;23.792;2023-11-21T12:58:22;6.07;;;5.60;;
57085;SDS011;42964;42.910;23.792;2023-11-21T13:03:24;8.07;;;6.43;;
57085;SDS011;42964;42.910;23.792;2023-11-21T13:08:24;6.93;;;6.15;;
57085;SDS011;42964;42.910;23.792;2023-11-21T13:13:25;6.90;;;5.90;;
57085;SDS011;42964;42.910;23.792;2023-11-21T13:18:27;5.70;;;5.20;;
57085;SDS011;42964;42.910;23.792;2023-11-21T13:23:27;5.40;;;5.00;;
57085;SDS011;42964;42.910;23.792;2023-11-21T13:28:27;5.90;;;5.40;;
57085;SDS011;42964;42.910;23.792;2023-11-21T13:33:31;6.78;;;4.97;;
57085;SDS011;42964;42.910;23.792;2023-11-21T13:38:32;6.88;;;6.18;;
57085;SDS011;42964;42.910;23.792;2023-11-21T13:43:33;7.38;;;6.20;;
57085;SDS011;42964;42.910;23.792;2023-11-21T13:48:32;7.40;;;6.70;;
57085;SDS011;42964;42.910;23.792;2023-11-21T13:53:44;6.88;;;6.28;;
57085;SDS011;42964;42.910;23.792;2023-11-21T13:58:49;7.05;;;6.45;;
57085;SDS011;42964;42.910;23.792;2023-11-21T14:03:51;6.60;;;6.00;;
57085;SDS011;42964;42.910;23.792;2023-11-21T14:08:58;6.70;;;6.10;;
57085;SDS011;42964;42.910;23.792;2023-11-21T14:13:59;8.40;;;7.25;;
57085;SDS011;42964;42.910;23.792;2023-11-21T14:18:58;8.15;;;7.32;;
57085;SDS011;42964;42.910;23.792;2023-11-21T14:24:14;6.70;;;6.20;;
57085;SDS011;42964;42.910;23.792;2023-11-21T14:29:17;14.32;;;11.13;;
57085;SDS011;42964;42.910;23.792;2023-11-21T14:34:22;9.30;;;8.40;;
57085;SDS011;42964;42.910;23.792;2023-11-21T14:39:22;17.77;;;15.88;;
57085;SDS011;42964;42.910;23.792;2023-11-21T14:44:26;14.57;;;12.27;;
57085;SDS011;42964;42.910;23.792;2023-11-21T14:49:27;10.32;;;7.65;;
57085;SDS011;42964;42.910;23.792;2023-11-21T14:54:35;75.90;;;40.53;;
57085;SDS011;42964;42.910;23.792;2023-11-21T14:59:45;41.60;;;29.63;;
57085;SDS011;42964;42.910;23.792;2023-11-21T15:04:50;15.70;;;12.73;;
57085;SDS011;42964;42.910;23.792;2023-11-21T15:09:57;11.45;;;9.45;;
57085;SDS011;42964;42.910;23.792;2023-11-21T15:14:56;14.70;;;11.23;;
57085;SDS011;42964;42.910;23.792;2023-11-21T15:19:56;20.33;;;14.20;;
57085;SDS011;42964;42.910;23.792;2023-11-21T15:24:55;11.93;;;9.93;;
57085;SDS011;42964;42.910;23.792;2023-11-21T15:29:56;13.95;;;11.50;;
57085;SDS011;42964;42.910;23.792;2023-11-21T15:34:55;17.25;;;12.02;;
57085;SDS011;42964;42.910;23.792;2023-11-21T15:39:54;9.40;;;8.50;;
57085;SDS011;42964;42.910;23.792;2023-11-21T15:44:53;10.48;;;8.68;;
57085;SDS011;42964;42.910;23.792;2023-11-21T15:49:52;9.32;;;7.75;;
57085;SDS011;42964;42.910;23.792;2023-11-21T15:54:51;8.32;;;7.53;;
57085;SDS011;42964;42.910;23.792;2023-11-21T15:59:50;12.80;;;10.60;;
57085;SDS011;42964;42.910;23.792;2023-11-21T16:04:49;18.05;;;14.95;;
57085;SDS011;42964;42.910;23.792;2023-11-21T16:09:48;18.80;;;16.30;;
57085;SDS011;42964;42.910;23.792;2023-11-21T16:14:48;17.70;;;14.88;;
57085;SDS011;42964;42.910;23.792;2023-11-21T16:19:48;25.85;;;17.60;;
57085;SDS011;42964;42.910;23.792;2023-11-21T16:24:47;37.65;;;26.48;;
57085;SDS011;42964;42.910;23.792;2023-11-21T16:34:46;31.20;;;21.53;;
57085;SDS011;42964;42.910;23.792;2023-11-21T16:39:46;30.00;;;20.15;;
57085;SDS011;42964;42.910;23.792;2023-11-21T16:44:47;27.13;;;20.75;;
57085;SDS011;42964;42.910;23.792;2023-11-21T16:49:47;24.75;;;19.42;;
57085;SDS011;42964;42.910;23.792;2023-11-21T16:54:47;28.38;;;20.50;;
57085;SDS011;42964;42.910;23.792;2023-11-21T16:59:47;39.88;;;31.17;;
57085;SDS011;42964;42.910;23.792;2023-11-21T17:04:49;57.78;;;41.88;;
57085;SDS011;42964;42.910;23.792;2023-11-21T17:14:47;38.28;;;28.45;;
57085;SDS011;42964;42.910;23.792;2023-11-21T17:19:47;27.95;;;20.30;;
57085;SDS011;42964;42.910;23.792;2023-11-21T17:24:46;39.42;;;23.45;;
57085;SDS011;42964;42.910;23.792;2023-11-21T17:29:45;41.63;;;28.67;;
57085;SDS011;42964;42.910;23.792;2023-11-21T17:34:44;19.73;;;16.00;;
57085;SDS011;42964;42.910;23.792;2023-11-21T17:39:43;26.10;;;18.98;;
57085;SDS011;42964;42.910;23.792;2023-11-21T17:44:42;28.92;;;22.25;;
57085;SDS011;42964;42.910;23.792;2023-11-21T17:49:41;42.80;;;33.30;;
57085;SDS011;42964;42.910;23.792;2023-11-21T17:54:40;46.55;;;31.60;;
57085;SDS011;42964;42.910;23.792;2023-11-21T17:59:40;44.17;;;31.00;;
57085;SDS011;42964;42.910;23.792;2023-11-21T18:09:38;59.47;;;37.22;;
57085;SDS011;42964;42.910;23.792;2023-11-21T18:14:38;52.40;;;36.85;;
57085;SDS011;42964;42.910;23.792;2023-11-21T18:19:37;57.20;;;42.35;;
57085;SDS011;42964;42.910;23.792;2023-11-21T18:24:36;67.05;;;46.17;;
57085;SDS011;42964;42.910;23.792;2023-11-21T18:29:35;88.03;;;56.85;;
57085;SDS011;42964;42.910;23.792;2023-11-21T18:34:34;90.18;;;61.65;;
57085;SDS011;42964;42.910;23.792;2023-11-21T18:39:33;95.50;;;64.53;;
57085;SDS011;42964;42.910;23.792;2023-11-21T18:44:33;71.10;;;49.00;;
57085;SDS011;42964;42.910;23.792;2023-11-21T18:54:34;91.82;;;57.78;;
57085;SDS011;42964;42.910;23.792;2023-11-21T18:59:33;89.88;;;55.38;;
57085;SDS011;42964;42.910;23.792;2023-11-21T19:09:32;64.25;;;42.42;;
57085;SDS011;42964;42.910;23.792;2023-11-21T19:14:33;93.25;;;66.10;;
57085;SDS011;42964;42.910;23.792;2023-11-21T19:19:32;101.57;;;72.57;;
57085;SDS011;42964;42.910;23.792;2023-11-21T19:24:31;100.13;;;71.45;;
57085;SDS011;42964;42.910;23.792;2023-11-21T19:29:30;88.68;;;64.65;;
57085;SDS011;42964;42.910;23.792;2023-11-21T19:34:29;69.65;;;52.05;;
57085;SDS011;42964;42.910;23.792;2023-11-21T19:39:28;72.82;;;52.17;;
57085;SDS011;42964;42.910;23.792;2023-11-21T19:44:27;81.35;;;54.08;;
57085;SDS011;42964;42.910;23.792;2023-11-21T19:49:26;69.10;;;51.17;;
57085;SDS011;42964;42.910;23.792;2023-11-21T19:59:24;43.92;;;30.20;;
57085;SDS011;42964;42.910;23.792;2023-11-21T20:04:23;34.97;;;25.05;;
57085;SDS011;42964;42.910;23.792;2023-11-21T20:09:22;37.53;;;25.08;;
57085;SDS011;42964;42.910;23.792;2023-11-21T20:19:20;33.45;;;24.67;;
57085;SDS011;42964;42.910;23.792;2023-11-21T20:24:19;52.72;;;38.70;;
57085;SDS011;42964;42.910;23.792;2023-11-21T20:29:19;69.97;;;47.25;;
57085;SDS011;42964;42.910;23.792;2023-11-21T20:34:18;61.28;;;44.95;;
57085;SDS011;42964;42.910;23.792;2023-11-21T20:39:18;80.00;;;56.17;;
57085;SDS011;42964;42.910;23.792;2023-11-21T20:44:18;66.53;;;47.80;;
57085;SDS011;42964;42.910;23.792;2023-11-21T20:49:19;62.88;;;45.20;;
57085;SDS011;42964;42.910;23.792;2023-11-21T20:54:18;71.50;;;47.45;;
57085;SDS011;42964;42.910;23.792;2023-11-21T20:59:17;57.90;;;42.80;;
57085;SDS011;42964;42.910;23.792;2023-11-21T21:04:16;52.40;;;39.08;;
57085;SDS011;42964;42.910;23.792;2023-11-21T21:09:16;61.88;;;41.47;;
57085;SDS011;42964;42.910;23.792;2023-11-21T21:14:15;51.80;;;37.97;;
57085;SDS011;42964;42.910;23.792;2023-11-21T21:19:15;53.58;;;37.42;;
57085;SDS011;42964;42.910;23.792;2023-11-21T21:24:14;64.57;;;43.20;;
57085;SDS011;42964;42.910;23.792;2023-11-21T21:29:13;65.68;;;41.10;;
57085;SDS011;42964;42.910;23.792;2023-11-21T21:34:13;56.28;;;37.53;;
57085;SDS011;42964;42.910;23.792;2023-11-21T21:39:13;55.33;;;39.80;;
57085;SDS011;42964;42.910;23.792;2023-11-21T21:44:13;60.55;;;44.33;;
57085;SDS011;42964;42.910;23.792;2023-11-21T21:49:13;54.72;;;40.05;;
57085;SDS011;42964;42.910;23.792;2023-11-21T21:54:12;55.28;;;37.75;;
57085;SDS011;42964;42.910;23.792;2023-11-21T21:59:11;48.20;;;33.80;;
57085;SDS011;42964;42.910;23.792;2023-11-21T22:04:11;54.33;;;34.08;;
57085;SDS011;42964;42.910;23.792;2023-11-21T22:09:10;41.38;;;30.73;;
57085;SDS011;42964;42.910;23.792;2023-11-21T22:14:11;47.58;;;31.35;;
57085;SDS011;42964;42.910;23.792;2023-11-21T22:19:10;46.28;;;30.20;;
57085;SDS011;42964;42.910;23.792;2023-11-21T22:24:09;51.60;;;31.52;;
57085;SDS011;42964;42.910;23.792;2023-11-21T22:29:08;46.03;;;31.52;;
57085;SDS011;42964;42.910;23.792;2023-11-21T22:34:08;51.92;;;35.78;;
57085;SDS011;42964;42.910;23.792;2023-11-21T22:39:08;45.50;;;34.75;;
57085;SDS011;42964;42.910;23.792;2023-11-21T22:44:07;66.90;;;45.22;;
57085;SDS011;42964;42.910;23.792;2023-11-21T22:49:06;57.97;;;43.53;;
57085;SDS011;42964;42.910;23.792;2023-11-21T22:54:07;62.00;;;42.63;;
57085;SDS011;42964;42.910;23.792;2023-11-21T22:59:06;62.80;;;41.75;;
57085;SDS011;42964;42.910;23.792;2023-11-21T23:04:05;55.60;;;39.42;;
57085;SDS011;42964;42.910;23.792;2023-11-21T23:09:05;45.55;;;33.22;;
57085;SDS011;42964;42.910;23.792;2023-11-21T23:14:04;51.28;;;31.80;;
57085;SDS011;42964;42.910;23.792;2023-11-21T23:19:03;47.47;;;30.52;;
57085;SDS011;42964;42.910;23.792;2023-11-21T23:24:02;44.35;;;29.88;;
57085;SDS011;42964;42.910;23.792;2023-11-21T23:29:07;42.13;;;29.63;;
57085;SDS011;42964;42.910;23.792;2023-11-21T23:39:09;42.92;;;30.30;;
57085;SDS011;42964;42.910;23.792;2023-11-21T23:44:08;47.50;;;33.35;;
57085;SDS011;42964;42.910;23.792;2023-11-21T23:49:07;51.33;;;34.85;;
57085;SDS011;42964;42.910;23.792;2023-11-21T23:54:06;54.28;;;38.92;;
57085;SDS011;42964;42.910;23.792;2023-11-21T23:59:05;56.58;;;38.60;;
